Terminal Aerodrome Forecast
Issued by NWS Paducah, KY

Home | Current Version | Previous Version | Text Only | Print | Product List | Glossary On
Versions: 1 2 3 4 5 6 7 8 9 10 11 12 13 14 15 16 17
000
FTUS43 KPAH 032221 AAA
TAFPAH
TAF AMD
KPAH 032221Z 0323/0418 00000KT P6SM FEW060
     FM040100 00000KT P6SM SKC
     FM040700 00000KT 5SM HZ BR SKC
     FM041700 15004KT P6SM SCT060=

USA.gov is the U.S. government's official web portal to all federal, state and local government web resources and services.